Time;durP1;ratioP1;P1;durP2;ratioP2;P2;SDS_P1;SDS_P2;PMS_P1;PMS_P2;Temp;Humidity;BMP_temperature;BMP_pressure;BME280_temperature;BME280_humidity;BME280_pressure;Samples;Min_cycle;Max_cycle;Signal;HPM_P1;HPM_P2
2021/07/24 00:01:28;;;;;;;15.43;6.50;;;;;;;15.43;100.00;100751.14;1745938;80;21007;-79
2021/07/24 00:03:54;;;;;;;16.48;5.83;;;;;;;15.41;100.00;100752.52;1769288;80;20945;-79
2021/07/24 00:06:20;;;;;;;15.50;6.42;;;;;;;15.39;100.00;100752.83;1753730;80;21128;-79
2021/07/24 00:08:45;;;;;;;17.98;6.70;;;;;;;15.34;100.00;100746.64;1763166;80;21160;-78
2021/07/24 00:11:11;;;;;;;15.78;6.35;;;;;;;15.34;100.00;100754.23;1757409;80;21665;-78
2021/07/24 00:13:40;;;;;;;13.45;5.47;;;;;;;15.34;100.00;100750.16;1735340;81;21583;-78
2021/07/24 00:16:06;;;;;;;22.50;5.90;;;;;;;15.36;100.00;100756.67;1761417;80;21141;-78
2021/07/24 00:18:33;;;;;;;15.75;6.03;;;;;;;15.34;100.00;100754.78;1763019;80;21091;-77
2021/07/24 00:21:00;;;;;;;17.15;5.58;;;;;;;15.30;100.00;100759.19;1753942;81;21084;-78
2021/07/24 00:23:28;;;;;;;18.90;5.90;;;;;;;15.30;100.00;100761.90;1735859;81;20984;-79
2021/07/24 00:25:54;;;;;;;14.33;5.20;;;;;;;15.26;100.00;100764.36;1742269;81;21062;-78
2021/07/24 00:28:20;;;;;;;13.13;5.42;;;;;;;15.24;100.00;100760.34;1731558;82;20887;-76
2021/07/24 00:30:46;;;;;;;13.53;5.50;;;;;;;15.21;100.00;100763.07;1737902;80;21189;-78
2021/07/24 00:33:11;;;;;;;16.50;5.45;;;;;;;15.18;100.00;100761.73;1737504;80;21160;-77
2021/07/24 00:35:38;;;;;;;22.32;5.80;;;;;;;15.17;100.00;100766.08;1740251;80;21019;-78
2021/07/24 00:38:04;;;;;;;14.93;5.60;;;;;;;15.15;100.00;100765.58;1742688;80;21025;-79
2021/07/24 00:40:35;;;;;;;14.58;5.25;;;;;;;15.11;100.00;100764.51;1724593;82;21044;-81
2021/07/24 00:43:02;;;;;;;15.63;5.75;;;;;;;15.09;100.00;100769.41;1738187;82;21181;-77
2021/07/24 00:45:33;;;;;;;16.87;5.45;;;;;;;15.11;100.00;100765.87;1740303;80;21111;-79
2021/07/24 00:48:01;;;;;;;15.58;5.75;;;;;;;15.10;100.00;100765.06;1732432;82;21575;-78
2021/07/24 00:50:29;;;;;;;16.97;6.08;;;;;;;15.07;100.00;100766.99;1735220;81;21574;-80
2021/07/24 00:53:09;;;;;;;19.67;5.92;;;;;;;15.07;100.00;100764.83;1742922;80;21047;-78
2021/07/24 00:55:23;;;;;;;14.87;5.60;;;;;;;15.05;100.00;100764.30;1722043;82;21515;-79
2021/07/24 00:57:48;;;;;;;14.38;5.47;;;;;;;15.06;100.00;100765.91;1744604;80;21098;-78
2021/07/24 01:00:16;;;;;;;13.32;5.10;;;;;;;15.08;100.00;100767.80;1748132;81;20971;-79
2021/07/24 01:02:42;;;;;;;22.30;5.92;;;;;;;15.08;100.00;100770.52;1726124;82;21121;-76
2021/07/24 01:05:11;;;;;;;9.18;4.87;;;;;;;15.07;100.00;100768.35;1743681;80;21758;-79
2021/07/24 01:07:40;;;;;;;16.97;5.12;;;;;;;15.04;100.00;100762.13;1729272;81;21164;-79
2021/07/24 01:10:07;;;;;;;10.88;5.00;;;;;;;15.05;100.00;100764.30;1724509;80;21958;-78
2021/07/24 01:12:37;;;;;;;12.03;4.22;;;;;;;15.05;100.00;100768.37;1731592;82;21609;-76
2021/07/24 01:15:05;;;;;;;15.35;4.90;;;;;;;15.02;100.00;100771.10;1738568;81;20992;-77
2021/07/24 01:17:32;;;;;;;13.98;4.90;;;;;;;14.99;100.00;100768.41;1740375;80;21067;-80
2021/07/24 01:19:59;;;;;;;8.75;4.62;;;;;;;14.97;100.00;100771.14;1730249;81;21070;-78
2021/07/24 01:22:28;;;;;;;13.28;4.55;;;;;;;14.94;100.00;100771.19;1748098;80;21162;-78
2021/07/24 01:24:54;;;;;;;11.03;3.98;;;;;;;14.90;100.00;100774.19;1713596;81;21103;-78
2021/07/24 01:27:20;;;;;;;13.00;4.20;;;;;;;14.87;100.00;100777.47;1750465;79;21028;-79
2021/07/24 01:29:46;;;;;;;13.45;4.00;;;;;;;14.81;100.00;100777.25;1753958;80;20936;-78
2021/07/24 01:32:11;;;;;;;12.53;4.75;;;;;;;14.80;100.00;100779.71;1736205;81;20837;-76
2021/07/24 01:34:37;;;;;;;11.35;4.35;;;;;;;14.78;100.00;100772.39;1751221;81;21272;-79
2021/07/24 01:37:04;;;;;;;17.02;4.97;;;;;;;14.76;100.00;100772.69;1758665;80;20877;-78
2021/07/24 01:39:30;;;;;;;12.58;5.03;;;;;;;14.77;100.00;100777.56;1717635;82;21039;-79
2021/07/24 01:41:56;;;;;;;10.20;5.03;;;;;;;14.75;100.00;100779.19;1685196;83;21027;-78
2021/07/24 01:44:22;;;;;;;13.58;4.42;;;;;;;14.73;100.00;100779.20;1694124;83;20999;-77
2021/07/24 01:46:48;;;;;;;11.83;4.55;;;;;;;14.72;100.00;100776.23;1700907;82;21140;-78
2021/07/24 01:52:46;;;;;;;16.15;4.30;;;;;;;14.71;100.00;100777.34;1729460;82;21051;-78
2021/07/24 01:54:51;;;;;;;12.33;4.70;;;;;;;14.69;100.00;100782.23;1624607;85;27019;-78
2021/07/24 01:57:20;;;;;;;10.23;4.50;;;;;;;14.65;100.00;100781.19;1595514;87;21124;-81
2021/07/24 01:59:47;;;;;;;13.25;4.67;;;;;;;14.66;100.00;100780.09;1581655;88;21531;-78
2021/07/24 02:02:16;;;;;;;8.65;3.85;;;;;;;14.67;100.00;100788.48;1558935;87;21137;-77
2021/07/24 02:04:52;;;;;;;9.98;4.42;;;;;;;14.63;100.00;100783.36;1585117;88;21888;-76
2021/07/24 02:07:21;;;;;;;14.30;4.22;;;;;;;14.62;100.00;100781.72;1588962;87;21655;-78
2021/07/24 02:09:48;;;;;;;15.13;4.47;;;;;;;14.63;100.00;100784.72;1588836;89;21034;-79
2021/07/24 02:12:15;;;;;;;14.95;4.60;;;;;;;14.60;100.00;100786.09;1591493;89;21356;-78
2021/07/24 02:14:41;;;;;;;13.20;4.40;;;;;;;14.58;100.00;100782.03;1587908;87;21105;-77
2021/07/24 02:17:07;;;;;;;11.38;4.40;;;;;;;14.60;100.00;100789.35;1575487;88;20958;-79
2021/07/24 02:19:34;;;;;;;15.98;4.20;;;;;;;14.62;100.00;100789.86;1589915;89;21069;-76
2021/07/24 02:22:00;;;;;;;10.32;4.58;;;;;;;14.64;100.00;100794.47;1588567;89;21289;-79
2021/07/24 02:24:26;;;;;;;10.23;4.58;;;;;;;14.67;100.00;100786.57;1586731;87;21277;-78
2021/07/24 02:26:53;;;;;;;10.72;4.58;;;;;;;14.69;100.00;100787.11;1635810;85;21194;-77
2021/07/24 02:29:19;;;;;;;15.25;4.37;;;;;;;14.74;100.00;100790.34;1626378;85;21497;-78
2021/07/24 02:31:45;;;;;;;13.30;4.55;;;;;;;14.75;100.00;100780.55;1637737;85;20904;-78
2021/07/24 02:34:11;;;;;;;14.10;4.37;;;;;;;14.80;100.00;100785.69;1632787;85;21712;-85
2021/07/24 02:36:36;;;;;;;9.55;4.67;;;;;;;14.84;100.00;100784.82;1643997;85;21181;-79
2021/07/24 02:39:02;;;;;;;17.30;5.17;;;;;;;14.93;100.00;100787.19;1639700;86;20900;-79
2021/07/24 02:41:28;;;;;;;12.70;4.70;;;;;;;15.01;100.00;100788.49;1644382;86;20990;-78
2021/07/24 02:43:54;;;;;;;12.95;4.85;;;;;;;15.12;100.00;100790.58;1639857;85;20872;-78
2021/07/24 02:46:20;;;;;;;14.73;4.85;;;;;;;15.21;100.00;100794.30;1640636;86;20987;-78
2021/07/24 02:48:47;;;;;;;12.45;4.80;;;;;;;15.31;100.00;100789.30;1631325;85;21746;-78
2021/07/24 02:51:15;;;;;;;10.20;4.50;;;;;;;15.40;100.00;100795.73;1659996;83;21053;-77
2021/07/24 02:53:41;;;;;;;13.18;4.72;;;;;;;15.50;100.00;100796.16;1631167;85;21533;-84
2021/07/24 02:56:08;;;;;;;16.52;5.60;;;;;;;15.62;100.00;100800.67;1663451;85;21098;-78
2021/07/24 02:58:33;;;;;;;13.55;4.85;;;;;;;15.74;100.00;100794.31;1658512;84;21035;-77
2021/07/24 03:01:09;;;;;;;18.45;5.00;;;;;;;15.80;100.00;100790.44;1678516;84;21893;-78
2021/07/24 03:03:36;;;;;;;11.30;4.72;;;;;;;15.92;100.00;100791.94;1629009;87;21078;-79
2021/07/24 03:06:02;;;;;;;10.00;5.25;;;;;;;16.08;100.00;100794.70;1631500;87;21547;-77
2021/07/24 03:08:29;;;;;;;12.75;4.87;;;;;;;16.23;100.00;100801.85;1631571;87;21199;-78
2021/07/24 03:10:54;;;;;;;14.10;5.20;;;;;;;16.35;100.00;100802.23;1596652;88;21103;-79
2021/07/24 03:13:20;;;;;;;11.28;4.83;;;;;;;16.49;100.00;100796.31;1625133;87;21157;-81
2021/07/24 03:15:46;;;;;;;11.68;5.35;;;;;;;16.67;100.00;100796.60;1598577;88;21143;-78
2021/07/24 03:18:12;;;;;;;16.48;5.17;;;;;;;16.87;100.00;100804.48;1616083;87;21048;-77
2021/07/24 03:20:38;;;;;;;20.50;5.67;;;;;;;17.07;100.00;100803.91;1587811;88;20995;-78
2021/07/24 03:23:04;;;;;;;14.75;5.30;;;;;;;17.44;100.00;100809.23;1622805;87;20912;-78
2021/07/24 03:25:30;;;;;;;11.08;4.97;;;;;;;18.01;100.00;100810.34;1613297;87;22054;-75
2021/07/24 03:27:56;;;;;;;18.85;5.90;;;;;;;18.71;100.00;100797.35;1611412;87;21088;-78
2021/07/24 03:30:23;;;;;;;15.23;5.25;;;;;;;19.48;100.00;100801.71;1631494;87;20991;-77
2021/07/24 03:32:50;;;;;;;14.20;5.20;;;;;;;20.22;100.00;100799.63;1631343;87;21213;-78
2021/07/24 03:35:16;;;;;;;14.78;5.17;;;;;;;20.91;100.00;100794.74;1621661;86;21197;-79
2021/07/24 03:37:42;;;;;;;14.87;5.37;;;;;;;21.52;100.00;100801.47;1598923;87;21094;-76
2021/07/24 03:40:09;;;;;;;14.80;5.40;;;;;;;22.09;100.00;100798.30;1614536;84;21285;-76
2021/07/24 03:42:35;;;;;;;12.78;4.95;;;;;;;22.58;100.00;100790.36;1670969;84;21075;-78
2021/07/24 03:45:01;;;;;;;16.93;5.40;;;;;;;23.23;100.00;100797.59;1680191;84;21056;-76
2021/07/24 03:47:27;;;;;;;14.13;5.12;;;;;;;23.80;100.00;100801.48;1674625;83;21098;-78
2021/07/24 03:49:53;;;;;;;12.95;5.45;;;;;;;24.44;100.00;100803.49;1688219;80;21174;-76
2021/07/24 03:52:18;;;;;;;15.00;5.35;;;;;;;25.00;100.00;100799.94;1759835;79;20915;-78
2021/07/24 03:54:44;;;;;;;7.05;4.47;;;;;;;25.55;100.00;100803.73;1758988;79;20947;-77
2021/07/24 03:57:10;;;;;;;13.65;5.50;;;;;;;26.10;100.00;100803.89;1744277;81;20862;-79
2021/07/24 03:59:36;;;;;;;26.45;5.65;;;;;;;26.64;100.00;100800.33;1718766;82;21070;-79
2021/07/24 04:02:05;;;;;;;13.62;5.10;;;;;;;27.20;100.00;100801.02;1702147;82;21147;-77
2021/07/24 04:04:30;;;;;;;14.30;5.25;;;;;;;27.67;100.00;100797.86;1683825;83;20999;-79
2021/07/24 04:06:56;;;;;;;13.48;5.10;;;;;;;28.12;98.66;100799.54;1760577;79;20949;-79
2021/07/24 04:09:26;;;;;;;18.15;5.35;;;;;;;28.56;92.33;100805.33;1733288;82;20905;-77
2021/07/24 04:11:52;;;;;;;16.02;5.12;;;;;;;29.04;87.37;100801.92;1685328;83;21079;-76
2021/07/24 04:14:18;;;;;;;14.58;4.92;;;;;;;29.40;79.25;100801.66;1691268;83;21148;-79
2021/07/24 04:16:44;;;;;;;11.12;4.83;;;;;;;29.71;75.36;100803.72;1706510;82;21137;-79
2021/07/24 04:19:10;;;;;;;12.60;4.30;;;;;;;30.03;70.39;100803.37;1695885;83;21061;-79
2021/07/24 04:21:36;;;;;;;10.72;4.45;;;;;;;30.40;69.23;100798.81;1694548;83;20934;-80
2021/07/24 04:24:02;;;;;;;21.23;5.33;;;;;;;30.89;64.59;100805.18;1728739;81;20925;-78
2021/07/24 04:26:32;;;;;;;10.72;4.60;;;;;;;31.20;59.18;100809.80;1704076;83;21134;-79
2021/07/24 04:28:59;;;;;;;10.50;4.80;;;;;;;31.44;57.84;100809.64;1694977;82;20995;-79
2021/07/24 04:31:25;;;;;;;13.48;4.92;;;;;;;31.74;56.11;100807.04;1758849;80;21088;-79
2021/07/24 04:33:51;;;;;;;13.20;5.55;;;;;;;31.99;54.09;100809.84;1750390;78;20974;-78
2021/07/24 04:36:17;;;;;;;13.40;4.47;;;;;;;32.33;52.77;100803.17;1771622;78;21170;-80
2021/07/24 04:38:43;;;;;;;10.18;4.60;;;;;;;32.72;50.95;100806.42;1774658;79;21131;-78
2021/07/24 04:41:08;;;;;;;10.30;4.67;;;;;;;33.01;48.61;100810.66;1765586;78;20873;-80
2021/07/24 04:43:34;;;;;;;16.05;5.25;;;;;;;33.10;47.72;100813.00;1773493;77;20845;-80
2021/07/24 04:46:00;;;;;;;13.10;5.28;;;;;;;33.39;47.35;100811.40;1762182;78;20917;-80
2021/07/24 04:48:26;;;;;;;14.43;4.78;;;;;;;33.67;45.46;100813.17;1757446;79;20872;-80
2021/07/24 04:50:55;;;;;;;8.23;4.58;;;;;;;33.79;45.31;100800.06;1748783;78;21811;-79
2021/07/24 04:53:21;;;;;;;12.53;5.05;;;;;;;34.19;43.86;100811.67;1761893;77;21012;-79
2021/07/24 04:55:47;;;;;;;16.25;5.12;;;;;;;34.57;43.95;100817.25;1744420;80;20868;-80
2021/07/24 04:58:14;;;;;;;18.87;5.55;;;;;;;34.88;42.76;100819.41;1761345;77;21012;-81
2021/07/24 05:00:46;;;;;;;14.07;5.67;;;;;;;35.15;41.72;100823.67;1764519;77;20988;-82
2021/07/24 05:03:16;;;;;;;13.10;5.00;;;;;;;35.28;40.56;100822.45;1767525;78;21169;-78
2021/07/24 05:05:43;;;;;;;11.48;5.53;;;;;;;35.44;39.65;100819.77;1767744;78;21062;-80
2021/07/24 05:08:11;;;;;;;12.45;5.03;;;;;;;35.80;39.13;100829.02;1766165;79;21019;-81
2021/07/24 05:10:41;;;;;;;12.35;5.03;;;;;;;36.23;38.85;100828.23;1778479;77;21020;-80
2021/07/24 05:13:07;;;;;;;9.75;5.58;;;;;;;36.57;37.33;100832.17;1770020;79;21056;-81
2021/07/24 05:15:33;;;;;;;16.10;4.50;;;;;;;36.90;35.97;100826.64;1746913;80;21966;-79
2021/07/24 05:17:59;;;;;;;11.70;4.28;;;;;;;37.17;34.75;100825.66;1769455;79;21032;-80
2021/07/24 05:20:26;;;;;;;10.25;3.95;;;;;;;36.95;33.75;100829.56;1758256;80;20908;-81
2021/07/24 05:22:52;;;;;;;10.65;4.03;;;;;;;36.95;33.37;100812.08;1757320;79;21043;-82
2021/07/24 05:25:18;;;;;;;10.45;4.50;;;;;;;36.95;33.37;100812.08;1752089;79;20912;-82
2021/07/24 05:27:46;;;;;;;11.43;4.47;;;;;;;37.32;32.81;100831.72;1748979;79;22328;-79
2021/07/24 05:30:13;;;;;;;11.93;4.50;;;;;;;37.55;33.64;100832.19;1766878;80;20992;-80
2021/07/24 05:32:41;;;;;;;11.38;4.20;;;;;;;37.92;33.25;100832.22;1756368;80;21060;-80
2021/07/24 05:35:08;;;;;;;6.28;4.17;;;;;;;38.37;31.50;100837.80;1754316;80;21045;-78
2021/07/24 05:37:34;;;;;;;7.25;4.30;;;;;;;38.71;30.68;100836.45;1755572;79;21083;-80
2021/07/24 05:40:00;;;;;;;12.13;4.40;;;;;;;38.69;30.78;100833.91;1776365;78;21876;-81
2021/07/24 05:42:26;;;;;;;17.85;4.60;;;;;;;39.05;31.18;100837.84;1778982;78;20877;-81
2021/07/24 05:44:52;;;;;;;8.28;4.03;;;;;;;39.69;31.23;100839.97;1765486;79;20951;-82
2021/07/24 05:47:17;;;;;;;9.13;5.12;;;;;;;39.95;29.93;100846.98;1759081;79;20876;-86
2021/07/24 05:49:43;;;;;;;10.23;4.62;;;;;;;40.27;29.98;100846.44;1753323;80;20881;-81
2021/07/24 05:52:11;;;;;;;7.00;3.65;;;;;;;40.47;29.73;100850.34;1757688;80;39152;-81
2021/07/24 05:54:39;;;;;;;6.37;3.85;;;;;;;40.58;28.78;100849.32;1736472;80;21013;-83
2021/07/24 05:57:06;;;;;;;10.78;4.30;;;;;;;40.35;26.99;100847.13;1753244;81;21481;-80
2021/07/24 05:59:34;;;;;;;12.25;4.20;;;;;;;40.05;28.14;100837.95;1758128;81;21039;-84
2021/07/24 06:02:01;;;;;;;9.10;4.45;;;;;;;40.28;28.25;100848.04;1757469;81;21036;-80
2021/07/24 06:04:27;;;;;;;8.45;4.10;;;;;;;40.68;28.78;100850.18;1754106;81;21162;-80
2021/07/24 06:06:56;;;;;;;10.13;3.87;;;;;;;41.34;27.82;100850.01;1760591;80;21457;-79
2021/07/24 06:09:22;;;;;;;5.87;3.58;;;;;;;41.54;27.11;100853.23;1736081;81;20988;-82
2021/07/24 06:11:50;;;;;;;8.38;4.30;;;;;;;41.58;26.56;100848.83;1750903;79;21506;-80
2021/07/24 06:14:15;;;;;;;6.75;3.70;;;;;;;41.66;26.77;100855.76;1760649;80;21000;-86
2021/07/24 06:16:41;;;;;;;7.83;4.42;;;;;;;41.66;25.74;100857.95;1766031;80;21872;-88
2021/07/24 06:19:07;;;;;;;13.75;4.17;;;;;;;41.61;26.92;100862.81;1760597;80;20880;-80
2021/07/24 06:21:33;;;;;;;8.70;4.33;;;;;;;41.77;26.06;100861.75;1749602;80;20963;-79
2021/07/24 06:23:59;;;;;;;9.33;4.28;;;;;;;42.06;26.56;100861.92;1749294;79;20876;-80
2021/07/24 06:26:25;;;;;;;10.70;4.08;;;;;;;42.22;25.13;100858.00;1712952;81;21059;-80
2021/07/24 06:28:51;;;;;;;7.78;4.70;;;;;;;42.11;25.33;100850.75;1750949;81;21144;-83
2021/07/24 06:31:17;;;;;;;11.00;4.20;;;;;;;42.44;25.70;100852.93;1757564;81;20898;-81
2021/07/24 06:33:42;;;;;;;6.90;3.87;;;;;;;42.24;24.52;100849.15;1751606;81;21498;-78
2021/07/24 06:36:08;;;;;;;5.20;3.95;;;;;;;41.91;24.92;100848.39;1745851;81;20853;-82
2021/07/24 06:38:34;;;;;;;5.65;3.98;;;;;;;42.26;25.21;100858.61;1761221;80;20897;-80
2021/07/24 06:41:04;;;;;;;7.75;4.08;;;;;;;42.49;24.56;100852.94;1771910;80;22526;-81
2021/07/24 06:43:30;;;;;;;5.85;4.10;;;;;;;43.13;24.78;100859.84;1754189;80;21059;-81
2021/07/24 06:45:55;;;;;;;8.90;4.17;;;;;;;43.46;23.99;100854.13;1748741;80;20959;-81
2021/07/24 06:48:21;;;;;;;12.23;4.37;;;;;;;43.67;24.24;100858.58;1750441;80;20933;-88
2021/07/24 06:50:47;;;;;;;12.78;4.62;;;;;;;44.04;23.26;100849.80;1768026;80;20944;-81
2021/07/24 06:53:13;;;;;;;8.70;4.70;;;;;;;44.47;23.69;100853.95;1754598;80;21764;-80
2021/07/24 06:55:39;;;;;;;10.18;4.25;;;;;;;44.72;22.56;100854.64;1752938;80;21145;-81
2021/07/24 06:58:05;;;;;;;6.00;4.70;;;;;;;44.78;23.04;100856.96;1772264;80;20999;-82
2021/07/24 07:00:32;;;;;;;7.80;4.37;;;;;;;44.56;22.18;100855.27;1737177;81;20936;-84
2021/07/24 07:02:59;;;;;;;9.40;4.62;;;;;;;44.69;22.48;100859.25;1772520;80;20996;-81
2021/07/24 07:05:32;;;;;;;6.70;4.70;;;;;;;44.73;21.66;100861.27;1761550;80;21080;-81
2021/07/24 07:07:57;;;;;;;6.35;4.60;;;;;;;44.84;22.42;100855.77;1755940;79;21086;-80
2021/07/24 07:10:23;;;;;;;5.70;3.83;;;;;;;45.32;21.92;100858.94;1742268;80;21194;-85
2021/07/24 07:12:49;;;;;;;6.95;3.83;;;;;;;45.37;21.24;100860.31;1749597;80;21006;-81
2021/07/24 07:15:15;;;;;;;5.37;3.52;;;;;;;45.10;20.09;100859.39;1738499;81;21113;-82
2021/07/24 07:17:41;;;;;;;6.12;4.12;;;;;;;45.01;20.02;100856.03;1756381;78;21884;-88
2021/07/24 07:20:09;;;;;;;4.72;3.83;;;;;;;44.61;20.40;100856.01;1759190;80;20889;-82
2021/07/24 07:22:35;;;;;;;6.03;3.70;;;;;;;44.44;20.90;100851.45;1752644;81;21037;-82
2021/07/24 07:25:01;;;;;;;5.95;3.95;;;;;;;44.58;21.10;100856.22;1778529;77;20984;-84
2021/07/24 07:27:27;;;;;;;6.30;3.60;;;;;;;44.76;20.29;100861.70;1772529;79;21082;-84
2021/07/24 07:29:53;;;;;;;7.80;3.65;;;;;;;44.97;20.70;100856.86;1785020;79;21158;-83
2021/07/24 07:32:19;;;;;;;5.90;3.72;;;;;;;45.15;19.48;100855.08;1767003;80;20954;-83
2021/07/24 07:34:45;;;;;;;7.35;4.15;;;;;;;44.76;19.55;100854.59;1768801;79;21097;-85
2021/07/24 07:37:11;;;;;;;6.53;3.42;;;;;;;43.93;20.24;100848.91;1770629;79;20865;-83
2021/07/24 07:39:37;;;;;;;3.75;3.40;;;;;;;43.78;20.71;100853.78;1771517;80;20970;-85
2021/07/24 07:42:03;;;;;;;5.80;3.15;;;;;;;44.02;20.68;100853.12;1772636;80;21741;-84
2021/07/24 07:44:29;;;;;;;3.98;3.45;;;;;;;44.64;20.58;100851.40;1770583;80;20982;-83
2021/07/24 07:46:56;;;;;;;5.15;3.40;;;;;;;45.16;19.71;100856.02;1773355;80;21535;-83
2021/07/24 07:49:22;;;;;;;9.08;3.40;;;;;;;45.52;19.64;100850.44;1771626;80;21073;-85
2021/07/24 07:51:48;;;;;;;6.33;3.52;;;;;;;45.85;19.22;100847.07;1771692;80;20982;-84
2021/07/24 07:54:14;;;;;;;4.12;3.60;;;;;;;46.06;18.93;100845.77;1773780;78;23048;-83
2021/07/24 07:56:40;;;;;;;3.42;3.12;;;;;;;46.12;18.39;100847.25;1767546;80;20864;-82
2021/07/24 07:59:06;;;;;;;7.22;3.70;;;;;;;46.10;19.03;100837.02;1770564;80;21156;-81
2021/07/24 08:01:32;;;;;;;6.37;3.40;;;;;;;46.27;18.64;100840.00;1768574;80;20919;-85
2021/07/24 08:03:58;;;;;;;7.60;3.72;;;;;;;46.38;18.14;100838.06;1768826;80;20896;-81
2021/07/24 08:06:24;;;;;;;6.53;3.12;;;;;;;44.87;18.80;100841.97;1769461;80;21134;-80
2021/07/24 08:08:50;;;;;;;4.75;3.40;;;;;;;44.44;20.10;100842.14;1770191;80;20863;-82
2021/07/24 08:11:17;;;;;;;3.70;3.30;;;;;;;44.38;20.09;100849.15;1771366;79;21030;-81
2021/07/24 08:13:43;;;;;;;4.97;3.17;;;;;;;44.56;20.20;100851.64;1770415;80;21212;-79
2021/07/24 08:16:18;;;;;;;7.47;3.40;;;;;;;45.06;19.48;100853.11;1774583;80;20914;-81
2021/07/24 08:18:44;;;;;;;4.15;2.87;;;;;;;45.28;19.60;100849.20;1770288;80;21177;-79
2021/07/24 08:21:10;;;;;;;13.78;3.33;;;;;;;45.43;18.76;100851.20;1768965;80;20946;-83
2021/07/24 08:23:36;;;;;;;6.35;3.20;;;;;;;45.46;19.03;100856.67;1749423;80;21010;-83
2021/07/24 08:26:02;;;;;;;5.50;3.50;;;;;;;45.48;18.61;100860.46;1769972;80;20967;-87
2021/07/24 08:28:29;;;;;;;7.03;2.70;;;;;;;45.46;18.59;100852.41;1772931;80;21518;-81
2021/07/24 08:30:56;;;;;;;5.30;3.10;;;;;;;45.54;18.17;100853.58;1771492;80;21348;-83
2021/07/24 08:33:22;;;;;;;9.00;3.25;;;;;;;45.04;18.24;100852.84;1770319;79;20975;-79
2021/07/24 08:35:49;;;;;;;4.37;3.27;;;;;;;44.66;18.68;100852.48;1771003;79;20927;-82
2021/07/24 08:38:15;;;;;;;5.28;2.85;;;;;;;44.47;18.70;100853.17;1769876;80;21037;-81
2021/07/24 08:40:46;;;;;;;7.87;3.08;;;;;;;44.14;18.08;100852.05;1750429;80;20880;-83
2021/07/24 08:43:13;;;;;;;6.20;3.27;;;;;;;43.72;18.95;100850.19;1767787;80;21992;-83
2021/07/24 08:45:39;;;;;;;6.75;2.80;;;;;;;44.18;19.02;100848.40;1770876;80;20991;-81
2021/07/24 08:48:06;;;;;;;7.78;2.77;;;;;;;44.58;19.37;100848.46;1769474;80;21057;-81
2021/07/24 08:50:34;;;;;;;6.33;4.03;;;;;;;44.92;18.66;100849.66;1777714;79;21026;-83
2021/07/24 08:53:08;;;;;;;7.92;3.80;;;;;;;44.93;18.33;100844.91;1789361;79;21534;-81
2021/07/24 08:55:38;;;;;;;8.83;3.30;;;;;;;44.11;18.22;100847.98;1755585;80;21000;-78
2021/07/24 08:58:10;;;;;;;6.78;3.75;;;;;;;42.76;18.80;100850.03;1685226;84;21152;-82
2021/07/24 09:00:34;;;;;;;7.15;3.22;;;;;;;42.11;19.50;100845.72;1677954;84;21426;-82
2021/07/24 09:03:03;;;;;;;8.80;3.00;;;;;;;41.29;20.30;100844.33;1679878;83;21075;-82
2021/07/24 09:05:31;;;;;;;5.22;2.90;;;;;;;40.86;21.71;100853.12;1699306;81;21058;-80
2021/07/24 09:08:00;;;;;;;6.15;2.55;;;;;;;41.83;21.30;100841.46;1681550;81;21396;-83
2021/07/24 09:10:26;;;;;;;6.08;2.80;;;;;;;42.97;21.43;100838.28;1716788;81;21586;-86
2021/07/24 09:12:55;;;;;;;7.22;2.90;;;;;;;43.59;20.00;100830.41;1641702;84;21058;-83
2021/07/24 09:15:22;;;;;;;3.52;2.80;;;;;;;44.02;20.52;100833.23;1710802;81;21134;-83
2021/07/24 09:17:47;;;;;;;4.15;2.58;;;;;;;43.92;19.64;100848.77;1706607;82;21605;-83
2021/07/24 09:20:14;;;;;;;3.67;2.35;;;;;;;42.78;20.17;100846.73;1693792;82;21130;-81
2021/07/24 09:22:42;;;;;;;6.45;2.75;;;;;;;41.77;21.42;100853.26;1656259;83;21002;-81
2021/07/24 09:25:20;;;;;;;6.53;2.50;;;;;;;41.68;20.86;100845.55;1685496;82;21099;-83
2021/07/24 09:27:49;;;;;;;8.00;2.85;;;;;;;42.19;21.34;100846.98;1673897;83;21336;-82
2021/07/24 09:30:29;;;;;;;8.38;3.05;;;;;;;42.34;20.30;100839.42;1678158;82;21526;-78
2021/07/24 09:33:14;;;;;;;5.20;2.98;;;;;;;42.68;20.08;100838.84;1692222;83;21202;-82
2021/07/24 09:35:46;;;;;;;12.18;3.00;;;;;;;42.50;20.65;100835.44;1689253;83;21725;-83
2021/07/24 09:38:16;;;;;;;5.05;2.58;;;;;;;41.41;21.05;100834.92;1693724;82;21057;-82
2021/07/24 09:40:46;;;;;;;10.55;3.00;;;;;;;40.32;21.52;100848.68;1661785;83;21664;-79
2021/07/24 09:43:40;;;;;;;7.95;2.70;;;;;;;39.42;22.07;100844.72;1675597;81;21030;-80
2021/07/24 09:46:18;;;;;;;13.98;2.98;;;;;;;38.50;23.25;100846.31;1715924;82;21971;-82
2021/07/24 09:48:48;;;;;;;5.40;2.85;;;;;;;38.88;23.62;100834.33;1701964;83;21503;-82
2021/07/24 09:51:17;;;;;;;8.50;3.10;;;;;;;39.21;22.75;100840.55;1681243;83;21091;-81
2021/07/24 09:53:45;;;;;;;5.28;2.72;;;;;;;39.07;22.10;100833.95;1624123;86;21058;-82
2021/07/24 09:58:45;;;;;;;8.78;3.10;;;;;;;39.41;23.51;100828.23;1640880;85;21633;-84
2021/07/24 10:01:18;;;;;;;5.45;2.87;;;;;;;39.64;23.55;100832.70;1641841;86;21578;-83
2021/07/24 10:03:49;;;;;;;11.35;3.90;;;;;;;39.55;23.59;100831.98;1645188;85;21574;-81
2021/07/24 10:06:16;;;;;;;9.28;2.90;;;;;;;38.77;23.51;100837.47;1637151;86;21087;-79
2021/07/24 10:08:49;;;;;;;5.50;2.67;;;;;;;38.17;23.91;100837.96;1647652;84;21165;-79
2021/07/24 10:11:15;;;;;;;6.10;3.10;;;;;;;38.31;24.85;100837.41;1665983;84;21099;-84
2021/07/24 10:13:44;;;;;;;10.30;3.00;;;;;;;38.68;24.82;100829.49;1654326;85;21091;-85
2021/07/24 10:16:24;;;;;;;8.43;2.95;;;;;;;38.94;23.84;100824.70;1666416;84;21127;-85
2021/07/24 10:18:52;;;;;;;9.03;3.70;;;;;;;39.19;23.40;100819.68;1661610;84;21073;-84
2021/07/24 10:21:22;;;;;;;9.48;3.30;;;;;;;38.82;22.69;100815.75;1637851;85;21033;-83
2021/07/24 10:23:49;;;;;;;8.23;2.85;;;;;;;38.16;24.71;100814.50;1648747;84;21054;-84
2021/07/24 10:30:08;;;;;;;6.22;3.30;;;;;;;37.73;24.62;100817.03;1655773;83;21032;-83
2021/07/24 10:32:42;;;;;;;6.42;2.95;;;;;;;36.97;25.44;100825.06;1680018;83;21090;-84
2021/07/24 10:35:10;;;;;;;6.83;3.15;;;;;;;36.70;26.53;100823.08;1651175;86;26891;-85
2021/07/24 10:37:59;;;;;;;5.78;3.40;;;;;;;36.95;25.90;100827.54;1566422;90;21150;-86
2021/07/24 10:40:34;;;;;;;13.18;3.30;;;;;;;36.92;25.12;100816.39;1546514;90;21682;-84
2021/07/24 10:43:06;;;;;;;6.28;2.83;;;;;;;36.99;25.04;100807.78;1569554;90;21147;-85
2021/07/24 10:45:37;;;;;;;9.80;3.30;;;;;;;36.93;25.40;100806.09;1507074;93;21063;-84
2021/07/24 10:48:21;;;;;;;6.25;3.35;;;;;;;36.00;25.79;100809.39;1483429;96;21046;-87
2021/07/24 10:51:06;;;;;;;10.50;3.47;;;;;;;35.55;26.50;100807.02;1431149;99;21067;-85
2021/07/24 10:54:07;;;;;;;9.20;3.65;;;;;;;35.97;26.92;100811.66;1405319;98;21582;-84
2021/07/24 10:56:45;;;;;;;5.87;3.12;;;;;;;36.55;26.75;100811.37;1441879;98;21126;-85
2021/07/24 10:59:33;;;;;;;6.83;3.22;;;;;;;37.09;26.22;100803.94;1442264;98;21103;-86
2021/07/24 11:02:08;;;;;;;9.23;4.08;;;;;;;36.81;25.44;100801.17;1440269;98;22429;-84
2021/07/24 11:04:47;;;;;;;8.43;3.33;;;;;;;35.90;26.50;100811.19;1485330;95;21056;-85
2021/07/24 11:07:34;;;;;;;10.15;3.50;;;;;;;35.79;28.32;100812.61;1503102;94;21609;-85
2021/07/24 11:10:09;;;;;;;9.23;3.62;;;;;;;35.63;27.54;100814.09;1477806;96;21064;-83
2021/07/24 11:12:42;;;;;;;9.55;3.58;;;;;;;35.32;28.04;100816.17;1464791;96;21241;-85
2021/07/24 11:15:13;;;;;;;5.85;3.52;;;;;;;35.41;28.56;100812.83;1462912;97;21612;-85
2021/07/24 11:17:43;;;;;;;7.22;3.50;;;;;;;36.00;28.58;100811.41;1418223;98;21131;-85
2021/07/24 11:20:29;;;;;;;10.18;3.87;;;;;;;36.51;27.67;100805.02;1384995;102;21143;-84
2021/07/24 11:23:08;;;;;;;10.88;3.83;;;;;;;36.82;27.30;100805.55;1349288;104;21116;-86
2021/07/24 11:25:37;;;;;;;9.53;3.75;;;;;;;37.18;27.06;100802.73;1361537;104;21146;-85
2021/07/24 11:28:07;;;;;;;7.42;3.70;;;;;;;36.91;27.79;100809.95;1340856;105;21314;-86
2021/07/24 11:30:40;;;;;;;9.80;3.45;;;;;;;36.94;26.89;100804.08;1354557;105;21196;-84